Time;durP1;ratioP1;P1;durP2;ratioP2;P2;SDS_P1;SDS_P2;PMS_P1;PMS_P2;Temp;Humidity;BMP_temperature;BMP_pressure;BME280_temperature;BME280_humidity;BME280_pressure;Samples;Min_cycle;Max_cycle;Signal;HPM_P1;HPM_P2
2022/09/27 00:00:41;;;;;;;9.30;7.90;;;14.90;99.90;;;;;;6325714;28;20566;-61
2022/09/27 00:03:46;;;;;;;8.07;7.37;;;15.00;99.90;;;;;;6325664;28;20472;-61
2022/09/27 00:06:49;;;;;;;9.17;8.37;;;15.00;99.90;;;;;;6322349;28;20468;-61
2022/09/27 00:09:52;;;;;;;8.57;7.70;;;14.90;99.90;;;;;;6327046;28;20483;-61
2022/09/27 00:12:55;;;;;;;8.20;7.50;;;14.90;99.90;;;;;;6326918;28;20483;-62
2022/09/27 00:16:00;;;;;;;9.90;9.00;;;14.90;99.90;;;;;;6326348;28;20479;-62
2022/09/27 00:19:07;;;;;;;9.53;8.73;;;14.90;99.90;;;;;;6326703;28;20951;-61
2022/09/27 00:22:10;;;;;;;10.47;8.83;;;14.90;99.90;;;;;;6326569;28;20586;-61
2022/09/27 00:25:14;;;;;;;10.77;8.83;;;14.80;99.90;;;;;;6327910;28;20444;-61
2022/09/27 00:28:17;;;;;;;10.23;9.23;;;14.80;99.90;;;;;;6326885;28;20868;-61
2022/09/27 00:31:22;;;;;;;10.63;9.63;;;14.80;99.90;;;;;;6327572;28;20932;-62
2022/09/27 00:34:27;;;;;;;10.33;9.43;;;14.80;99.90;;;;;;6327321;28;20505;-62
2022/09/27 00:37:30;;;;;;;10.10;9.30;;;14.80;99.90;;;;;;6327491;28;20476;-61
2022/09/27 00:40:33;;;;;;;10.77;9.73;;;14.70;99.90;;;;;;6319433;28;20939;-63
2022/09/27 00:43:46;;;;;;;12.30;11.20;;;14.80;99.90;;;;;;6327892;28;20461;-62
2022/09/27 00:46:56;;;;;;;10.83;9.83;;;14.70;99.90;;;;;;6327570;28;20469;-62
2022/09/27 00:50:05;;;;;;;11.00;10.00;;;14.80;99.90;;;;;;6327432;28;20775;-62
2022/09/27 00:53:15;;;;;;;11.17;10.13;;;14.70;99.90;;;;;;6327353;28;20527;-62
2022/09/27 00:56:22;;;;;;;9.93;9.03;;;14.70;99.90;;;;;;6327172;28;20479;-62
2022/09/27 00:59:28;;;;;;;10.40;9.40;;;14.70;99.90;;;;;;6327253;28;20488;-62
2022/09/27 01:02:34;;;;;;;11.40;9.67;;;14.80;99.90;;;;;;6326139;28;20523;-61
2022/09/27 01:05:39;;;;;;;10.50;9.50;;;14.80;99.90;;;;;;6326424;28;20464;-60
2022/09/27 01:08:42;;;;;;;11.30;10.30;;;14.80;99.90;;;;;;6315912;28;20464;-60
2022/09/27 01:11:49;;;;;;;10.73;9.57;;;14.90;99.90;;;;;;6325266;28;20495;-60
2022/09/27 01:15:06;;;;;;;9.80;8.80;;;14.90;99.90;;;;;;6325135;28;20561;-60
2022/09/27 01:18:24;;;;;;;9.57;8.67;;;14.90;99.90;;;;;;6326609;28;20473;-60
2022/09/27 01:21:48;;;;;;;10.03;9.03;;;15.00;99.90;;;;;;6326457;28;20477;-60
2022/09/27 01:25:03;;;;;;;9.73;8.90;;;15.00;99.90;;;;;;6326286;28;20465;-60
2022/09/27 01:28:17;;;;;;;9.77;8.77;;;15.00;99.90;;;;;;6326345;28;20452;-60
2022/09/27 01:31:26;;;;;;;8.33;7.57;;;15.00;99.90;;;;;;6326227;28;20453;-60
2022/09/27 01:34:40;;;;;;;8.60;7.90;;;15.10;99.90;;;;;;6325890;28;20472;-61
2022/09/27 01:37:51;;;;;;;8.83;8.03;;;15.10;99.90;;;;;;6325587;28;20460;-62
2022/09/27 01:41:04;;;;;;;8.70;7.90;;;15.10;99.90;;;;;;6325349;28;20472;-63
2022/09/27 01:44:13;;;;;;;7.83;7.17;;;15.10;99.90;;;;;;6325562;28;21033;-62
2022/09/27 01:47:21;;;;;;;8.17;7.30;;;15.10;99.90;;;;;;6325602;28;20479;-62
2022/09/27 01:50:30;;;;;;;9.37;7.63;;;15.10;99.90;;;;;;6323713;28;20475;-62
2022/09/27 01:53:37;;;;;;;8.80;8.07;;;15.20;99.90;;;;;;6324589;28;20523;-62
2022/09/27 01:56:46;;;;;;;10.30;7.97;;;15.10;99.90;;;;;;6324609;28;20472;-62
2022/09/27 01:59:53;;;;;;;8.00;7.30;;;15.10;99.90;;;;;;6324260;28;20960;-62
2022/09/27 02:03:02;;;;;;;7.47;6.87;;;15.20;99.90;;;;;;6321019;28;20476;-62
2022/09/27 02:06:10;;;;;;;7.37;6.33;;;15.10;99.90;;;;;;6320307;28;20491;-62
2022/09/27 02:09:18;;;;;;;7.70;7.00;;;15.10;99.90;;;;;;6325288;28;20971;-62
2022/09/27 02:12:25;;;;;;;7.30;6.60;;;15.10;99.90;;;;;;6320393;28;20464;-62
2022/09/27 02:15:34;;;;;;;7.50;6.80;;;15.10;99.90;;;;;;6325160;28;20476;-62
2022/09/27 02:18:54;;;;;;;7.00;6.47;;;15.10;99.90;;;;;;6325242;28;20481;-62
2022/09/27 02:22:07;;;;;;;7.00;6.40;;;15.00;99.90;;;;;;6324751;28;20538;-62
2022/09/27 02:25:20;;;;;;;7.70;7.00;;;15.00;99.90;;;;;;6324592;28;20507;-62
2022/09/27 02:28:28;;;;;;;7.60;6.93;;;15.00;99.90;;;;;;6325225;28;20457;-62
2022/09/27 02:31:31;;;;;;;9.87;8.97;;;14.90;99.90;;;;;;6325259;28;20472;-62
2022/09/27 02:34:38;;;;;;;9.00;8.17;;;14.80;99.90;;;;;;6324959;28;20543;-62
2022/09/27 02:37:41;;;;;;;8.33;7.63;;;14.80;99.90;;;;;;6324555;28;20461;-62
2022/09/27 02:40:46;;;;;;;10.07;9.23;;;14.70;99.90;;;;;;6324737;28;20476;-62
2022/09/27 02:43:53;;;;;;;9.27;8.47;;;14.70;99.90;;;;;;6325049;28;20476;-62
2022/09/27 02:47:19;;;;;;;9.30;8.37;;;14.70;99.90;;;;;;6324749;28;20480;-62
2022/09/27 02:50:47;;;;;;;9.50;8.60;;;14.70;99.90;;;;;;6325031;28;20472;-62
2022/09/27 02:54:03;;;;;;;10.77;9.77;;;14.70;99.90;;;;;;6324273;28;20782;-62
2022/09/27 02:57:14;;;;;;;11.67;10.67;;;14.70;99.90;;;;;;6324492;28;20975;-62
2022/09/27 03:00:20;;;;;;;12.00;10.80;;;14.70;99.90;;;;;;6324324;28;20484;-62
2022/09/27 03:03:32;;;;;;;12.07;11.00;;;14.70;99.90;;;;;;6324284;28;20472;-62
2022/09/27 03:06:38;;;;;;;14.37;12.87;;;14.60;99.90;;;;;;6324492;28;20481;-62
2022/09/27 03:09:44;;;;;;;16.37;14.83;;;14.70;99.90;;;;;;6323981;28;20464;-62
2022/09/27 03:12:47;;;;;;;16.20;14.63;;;14.60;99.90;;;;;;6323840;28;20828;-62
2022/09/27 03:15:50;;;;;;;15.90;14.20;;;14.60;99.90;;;;;;6323945;28;20475;-62
2022/09/27 03:18:53;;;;;;;15.60;14.00;;;14.50;99.90;;;;;;6323244;28;20549;-62
2022/09/27 03:21:58;;;;;;;16.33;14.63;;;14.40;99.90;;;;;;6329529;28;20491;-62
2022/09/27 03:25:01;;;;;;;17.37;15.27;;;14.40;99.90;;;;;;6329065;28;20476;-62
2022/09/27 03:28:04;;;;;;;16.60;14.97;;;14.30;99.90;;;;;;6329294;28;20452;-62
2022/09/27 03:31:08;;;;;;;15.90;14.30;;;14.30;99.90;;;;;;6329404;28;20464;-62
2022/09/27 03:34:11;;;;;;;18.17;16.37;;;14.30;99.90;;;;;;6329137;28;20551;-62
2022/09/27 03:37:15;;;;;;;16.50;14.90;;;14.40;99.90;;;;;;6329468;28;20448;-62
2022/09/27 03:40:18;;;;;;;16.60;14.93;;;14.40;99.90;;;;;;6328715;28;20476;-62
2022/09/27 03:43:21;;;;;;;16.83;15.13;;;14.40;99.90;;;;;;6328516;28;20464;-62
2022/09/27 03:46:25;;;;;;;15.57;14.07;;;14.40;99.90;;;;;;6328574;28;20974;-62
2022/09/27 03:49:28;;;;;;;16.17;14.13;;;14.50;99.90;;;;;;6329194;28;20472;-62
2022/09/27 03:52:33;;;;;;;17.87;16.17;;;14.50;99.90;;;;;;6328852;28;20490;-62
2022/09/27 03:55:36;;;;;;;16.67;14.10;;;14.50;99.90;;;;;;6328843;28;20475;-62
2022/09/27 03:58:39;;;;;;;15.03;13.43;;;14.50;99.90;;;;;;6328709;28;20475;-62
2022/09/27 04:01:43;;;;;;;16.90;15.17;;;14.40;99.90;;;;;;6328383;28;20530;-63
2022/09/27 04:04:46;;;;;;;17.37;15.60;;;14.20;99.90;;;;;;6328533;28;20464;-62
2022/09/27 04:07:51;;;;;;;16.93;15.43;;;14.20;99.90;;;;;;6328232;28;20525;-62
2022/09/27 04:10:54;;;;;;;17.27;15.43;;;14.30;99.90;;;;;;6328097;28;20783;-62
2022/09/27 04:13:57;;;;;;;17.10;15.40;;;14.20;99.90;;;;;;6328476;28;20468;-60
2022/09/27 04:17:00;;;;;;;16.77;15.10;;;14.00;99.90;;;;;;6328113;28;20468;-62
2022/09/27 04:20:04;;;;;;;17.10;15.40;;;14.10;99.90;;;;;;6323511;28;20499;-63
2022/09/27 04:23:09;;;;;;;18.13;16.23;;;14.10;99.90;;;;;;6327670;28;20861;-61
2022/09/27 04:26:12;;;;;;;17.17;15.37;;;14.00;99.90;;;;;;6327360;28;20778;-61
2022/09/27 04:29:15;;;;;;;15.57;14.07;;;14.00;99.90;;;;;;6327281;28;20467;-62
2022/09/27 04:32:19;;;;;;;16.57;14.87;;;14.00;99.90;;;;;;6327242;28;20486;-61
2022/09/27 04:38:44;;;;;;;12.60;11.30;;;13.90;99.90;;;;;;6327278;28;21037;-61
2022/09/27 04:41:47;;;;;;;11.63;10.43;;;13.90;99.90;;;;;;6327665;28;20479;-62
2022/09/27 04:44:50;;;;;;;10.73;9.60;;;13.80;99.90;;;;;;6327152;28;20529;-62
2022/09/27 04:47:53;;;;;;;11.47;10.23;;;13.90;99.90;;;;;;6327350;28;20472;-62
2022/09/27 04:50:57;;;;;;;13.57;11.43;;;13.90;99.90;;;;;;6326951;28;20502;-62
2022/09/27 04:54:02;;;;;;;11.53;10.03;;;13.90;99.90;;;;;;6327297;28;20483;-62
2022/09/27 04:57:05;;;;;;;10.50;9.50;;;13.90;99.90;;;;;;6327073;28;20630;-62
2022/09/27 05:00:10;;;;;;;9.17;8.27;;;13.90;99.90;;;;;;6327267;28;20476;-62
2022/09/27 05:03:13;;;;;;;10.33;9.23;;;14.00;99.90;;;;;;6326626;28;20781;-62
2022/09/27 05:06:16;;;;;;;9.47;8.60;;;14.00;99.90;;;;;;6327096;28;20476;-62
2022/09/27 05:09:21;;;;;;;10.40;9.40;;;14.10;99.90;;;;;;6326643;28;20831;-62
2022/09/27 05:12:25;;;;;;;8.63;7.70;;;14.20;99.90;;;;;;6326947;28;20477;-67
2022/09/27 05:15:29;;;;;;;10.53;8.10;;;14.20;99.90;;;;;;6326615;28;20469;-64
2022/09/27 05:18:32;;;;;;;8.30;7.50;;;14.20;99.90;;;;;;6326701;28;20538;-64
2022/09/27 05:21:35;;;;;;;9.20;8.40;;;14.10;99.90;;;;;;6326289;28;20488;-64
2022/09/27 05:24:39;;;;;;;9.03;8.13;;;14.10;99.90;;;;;;6316677;28;20476;-64
2022/09/27 05:27:43;;;;;;;11.00;9.90;;;14.00;99.90;;;;;;6326622;28;20541;-65
2022/09/27 05:30:46;;;;;;;10.50;9.23;;;13.90;99.90;;;;;;6325966;28;20558;-64
2022/09/27 05:33:49;;;;;;;14.80;11.63;;;13.90;99.90;;;;;;6325767;28;20567;-64
2022/09/27 05:36:52;;;;;;;12.07;10.87;;;13.80;99.90;;;;;;6325884;28;20995;-63
2022/09/27 05:39:56;;;;;;;10.50;9.37;;;13.70;99.90;;;;;;6328630;28;20488;-64
2022/09/27 05:42:59;;;;;;;11.10;9.97;;;13.80;99.90;;;;;;6330734;28;20472;-63
2022/09/27 05:46:04;;;;;;;12.70;10.70;;;13.80;99.90;;;;;;6326420;28;20460;-64
2022/09/27 05:49:07;;;;;;;11.53;10.43;;;13.80;99.90;;;;;;6325892;28;20452;-66
2022/09/27 05:52:10;;;;;;;13.20;11.43;;;13.70;99.90;;;;;;6326330;28;20457;-64
2022/09/27 05:55:20;;;;;;;13.70;11.70;;;13.60;99.90;;;;;;6326090;28;20561;-64
2022/09/27 05:58:24;;;;;;;13.10;11.43;;;13.60;99.90;;;;;;6326366;28;20464;-63
2022/09/27 06:01:27;;;;;;;12.37;10.17;;;13.60;99.90;;;;;;6325448;28;20484;-63
2022/09/27 06:04:30;;;;;;;12.73;11.30;;;13.60;99.90;;;;;;6325819;28;20460;-64
2022/09/27 06:07:33;;;;;;;11.70;10.50;;;13.70;99.90;;;;;;6317867;28;20464;-64
2022/09/27 06:10:38;;;;;;;12.20;10.90;;;13.70;99.90;;;;;;6325099;28;20767;-64
2022/09/27 06:13:41;;;;;;;11.70;9.80;;;13.80;99.90;;;;;;6325565;28;20522;-64
2022/09/27 06:16:44;;;;;;;11.30;9.80;;;13.90;99.90;;;;;;6325036;28;20526;-64
2022/09/27 06:19:48;;;;;;;11.73;10.33;;;13.90;99.90;;;;;;6325486;28;20491;-64
2022/09/27 06:22:52;;;;;;;11.93;10.73;;;13.90;99.90;;;;;;6324827;28;21069;-63
2022/09/27 06:26:02;;;;;;;11.70;10.50;;;13.90;99.90;;;;;;6325670;28;20464;-63
2022/09/27 06:29:05;;;;;;;11.93;10.73;;;14.00;99.90;;;;;;6325849;28;20526;-64
2022/09/27 06:32:09;;;;;;;11.03;9.90;;;14.10;99.90;;;;;;6324790;28;20477;-64
2022/09/27 06:35:12;;;;;;;11.57;10.37;;;14.20;99.90;;;;;;6324923;28;20476;-63
2022/09/27 06:38:20;;;;;;;11.00;9.83;;;14.20;99.90;;;;;;6325101;28;20479;-63
2022/09/27 06:41:24;;;;;;;10.93;9.83;;;14.30;99.90;;;;;;6325281;28;20472;-64
2022/09/27 06:44:27;;;;;;;10.50;9.40;;;14.30;99.90;;;;;;6325182;28;20475;-64
2022/09/27 06:47:35;;;;;;;10.43;9.43;;;14.50;99.90;;;;;;6324719;28;20472;-64
2022/09/27 06:50:40;;;;;;;11.93;8.70;;;14.40;99.90;;;;;;6324726;28;20957;-64
2022/09/27 06:53:43;;;;;;;10.37;8.23;;;14.60;99.90;;;;;;6324321;28;20472;-64
2022/09/27 06:56:48;;;;;;;8.37;7.57;;;14.50;99.90;;;;;;6324932;28;20468;-65
2022/09/27 07:03:13;;;;;;;8.17;7.50;;;14.70;99.90;;;;;;6324695;28;20477;-63
2022/09/27 07:06:19;;;;;;;8.43;7.63;;;14.80;99.90;;;;;;6324725;28;20472;-64
2022/09/27 07:09:22;;;;;;;9.40;7.50;;;14.80;99.90;;;;;;6324624;28;20982;-64
2022/09/27 07:12:27;;;;;;;7.77;7.07;;;14.80;99.90;;;;;;6324462;28;20526;-64
2022/09/27 07:15:31;;;;;;;7.90;7.20;;;14.90;99.90;;;;;;6324378;28;20483;-64
2022/09/27 07:18:34;;;;;;;7.30;6.60;;;15.10;99.90;;;;;;6324452;28;20468;-64
2022/09/27 07:21:37;;;;;;;8.20;7.40;;;15.20;99.90;;;;;;6323862;28;20480;-64
2022/09/27 07:24:40;;;;;;;8.47;7.77;;;15.30;99.90;;;;;;6324276;28;21003;-64
2022/09/27 07:27:45;;;;;;;9.67;8.27;;;15.20;99.90;;;;;;6324176;28;20476;-64
2022/09/27 07:30:48;;;;;;;8.63;7.80;;;15.30;99.90;;;;;;6324362;28;20468;-64
2022/09/27 07:33:52;;;;;;;12.97;11.77;;;15.30;99.90;;;;;;6292707;28;20489;-64
2022/09/27 07:36:59;;;;;;;9.57;8.63;;;15.40;99.90;;;;;;6303312;28;20473;-64
2022/09/27 07:40:05;;;;;;;9.10;8.00;;;15.50;99.90;;;;;;6306831;28;20987;-64
2022/09/27 07:43:11;;;;;;;7.83;7.13;;;15.50;99.90;;;;;;6304816;28;20477;-63
2022/09/27 07:46:14;;;;;;;9.63;8.73;;;15.50;99.90;;;;;;6309296;28;20472;-63
2022/09/27 07:49:17;;;;;;;9.13;8.10;;;15.40;99.90;;;;;;6313356;28;20939;-63
2022/09/27 07:52:20;;;;;;;9.97;9.03;;;15.40;99.90;;;;;;6314765;28;20734;-63
2022/09/27 07:55:24;;;;;;;9.70;8.70;;;15.40;99.90;;;;;;6311269;28;20468;-63
2022/09/27 07:58:29;;;;;;;9.80;8.90;;;15.40;99.90;;;;;;6324081;28;20468;-63
2022/09/27 08:01:33;;;;;;;9.20;8.30;;;15.30;99.90;;;;;;6312210;28;20461;-63
2022/09/27 08:04:36;;;;;;;8.97;8.17;;;15.40;99.90;;;;;;6310441;28;20972;-63
2022/09/27 08:07:40;;;;;;;9.43;8.53;;;15.20;99.90;;;;;;6319413;28;20476;-64
2022/09/27 08:10:45;;;;;;;8.87;8.07;;;15.30;99.90;;;;;;6328797;28;20529;-63
2022/09/27 08:13:51;;;;;;;9.17;8.27;;;15.30;99.90;;;;;;6328052;28;20484;-63
2022/09/27 08:16:54;;;;;;;9.30;8.40;;;15.40;99.90;;;;;;6314635;28;20471;-64
2022/09/27 08:19:57;;;;;;;8.50;7.60;;;15.50;99.90;;;;;;6319391;28;20984;-64
2022/09/27 08:23:02;;;;;;;8.47;7.67;;;15.70;99.90;;;;;;6303224;28;20480;-63
2022/09/27 08:26:06;;;;;;;8.10;7.40;;;15.90;99.90;;;;;;6318481;28;20469;-65
2022/09/27 08:29:11;;;;;;;9.93;8.90;;;16.00;99.90;;;;;;6327369;28;20504;-64
2022/09/27 08:32:16;;;;;;;11.30;10.30;;;16.10;99.90;;;;;;6328043;28;20480;-64
2022/09/27 08:35:27;;;;;;;9.00;8.30;;;16.20;99.90;;;;;;6317327;28;20532;-64
2022/09/27 08:38:31;;;;;;;8.87;7.80;;;16.30;99.90;;;;;;6314795;28;20824;-65
2022/09/27 08:41:38;;;;;;;8.20;7.50;;;16.40;99.90;;;;;;6302119;28;20992;-61
2022/09/27 08:44:51;;;;;;;8.57;7.50;;;16.50;99.90;;;;;;6308846;28;20484;-63
2022/09/27 08:47:57;;;;;;;8.70;8.00;;;16.70;99.90;;;;;;6305893;28;20485;-62
2022/09/27 08:51:03;;;;;;;10.87;9.87;;;16.90;99.90;;;;;;6324091;28;20803;-70
2022/09/27 08:54:11;;;;;;;8.57;7.90;;;16.90;99.90;;;;;;6306087;28;20492;-66
2022/09/27 08:57:15;;;;;;;11.90;8.40;;;16.90;99.90;;;;;;6301797;28;20493;-67
2022/09/27 09:00:20;;;;;;;8.60;7.90;;;17.10;99.90;;;;;;6301553;28;20476;-66
2022/09/27 09:03:27;;;;;;;7.47;6.83;;;17.20;99.90;;;;;;6301881;28;20577;-66
2022/09/27 09:06:36;;;;;;;7.57;6.97;;;17.30;99.90;;;;;;6301857;28;20473;-66
2022/09/27 09:09:47;;;;;;;6.93;6.23;;;17.20;99.90;;;;;;6305538;28;20483;-66
2022/09/27 09:12:55;;;;;;;7.30;6.70;;;17.10;99.90;;;;;;6310319;28;20602;-67
2022/09/27 09:16:08;;;;;;;9.00;8.20;;;17.00;99.90;;;;;;6321429;28;20488;-67
2022/09/27 09:19:27;;;;;;;12.17;11.17;;;17.10;99.90;;;;;;6315751;28;20452;-67
2022/09/27 09:22:41;;;;;;;7.50;7.00;;;17.00;99.90;;;;;;6309128;28;20953;-67
2022/09/27 09:25:53;;;;;;;12.87;11.77;;;16.90;99.90;;;;;;6321721;28;20472;-66
2022/09/27 09:29:19;;;;;;;8.57;7.80;;;16.80;99.90;;;;;;6326455;28;20484;-65
2022/09/27 09:32:34;;;;;;;7.57;6.80;;;16.70;99.90;;;;;;6326053;28;20477;-66
2022/09/27 09:35:42;;;;;;;10.30;9.30;;;16.60;99.90;;;;;;6327016;28;20472;-65
2022/09/27 09:38:50;;;;;;;11.10;10.00;;;16.60;99.90;;;;;;6321678;28;20473;-66
2022/09/27 09:42:07;;;;;;;13.23;12.03;;;16.40;99.90;;;;;;6304748;28;20552;-66
2022/09/27 09:45:18;;;;;;;12.70;11.60;;;16.40;99.90;;;;;;6309576;28;20477;-65
2022/09/27 09:48:30;;;;;;;10.10;9.13;;;16.40;99.90;;;;;;6305438;28;20469;-66
2022/09/27 09:51:38;;;;;;;10.93;9.97;;;16.40;99.90;;;;;;6312281;28;20564;-66
2022/09/27 09:54:46;;;;;;;8.63;7.93;;;16.30;99.90;;;;;;6304599;28;20465;-66
2022/09/27 09:57:59;;;;;;;10.20;8.70;;;16.40;99.90;;;;;;6313215;28;20473;-68
2022/09/27 10:01:16;;;;;;;10.40;9.40;;;16.50;99.90;;;;;;6310827;28;20790;-68
2022/09/27 10:04:23;;;;;;;10.33;9.33;;;16.60;99.90;;;;;;6309924;28;20469;-68
2022/09/27 10:07:28;;;;;;;10.63;9.63;;;16.60;99.90;;;;;;6308288;28;20472;-68
2022/09/27 10:10:31;;;;;;;8.90;8.03;;;16.60;99.90;;;;;;6320517;28;20467;-66
2022/09/27 10:13:36;;;;;;;9.90;8.90;;;16.40;99.90;;;;;;6325216;28;20506;-67
2022/09/27 10:16:42;;;;;;;9.63;8.77;;;16.20;99.90;;;;;;6325288;28;20468;-65
2022/09/27 10:19:48;;;;;;;4.43;4.03;;;16.10;99.90;;;;;;6307476;28;20466;-66
2022/09/27 10:22:55;;;;;;;3.07;2.37;;;16.00;99.90;;;;;;6299566;28;20728;-65
2022/09/27 10:26:01;;;;;;;2.17;1.77;;;15.90;99.90;;;;;;6298677;28;20526;-66
2022/09/27 10:29:21;;;;;;;2.27;1.87;;;15.80;99.90;;;;;;6298758;28;20546;-66
2022/09/27 10:32:30;;;;;;;2.20;1.40;;;15.80;99.90;;;;;;6306558;28;20948;-67
2022/09/27 10:35:37;;;;;;;1.13;1.03;;;15.80;99.90;;;;;;6324638;28;20997;-68
2022/09/27 10:38:52;;;;;;;2.03;1.83;;;15.80;99.90;;;;;;6322148;28;20465;-69
2022/09/27 10:41:56;;;;;;;2.57;1.70;;;15.70;99.90;;;;;;6345159;28;20484;-69
2022/09/27 10:44:59;;;;;;;2.37;2.17;;;15.60;99.90;;;;;;6331903;28;20576;-69
2022/09/27 10:48:02;;;;;;;2.77;2.40;;;15.60;99.90;;;;;;6323975;28;20487;-69
2022/09/27 10:51:19;;;;;;;1.90;1.60;;;15.60;99.90;;;;;;6324283;28;20477;-69
2022/09/27 10:54:26;;;;;;;2.13;1.93;;;15.50;99.90;;;;;;6321408;28;20542;-68
2022/09/27 10:57:30;;;;;;;2.10;1.90;;;15.50;99.90;;;;;;6324125;28;20468;-68
2022/09/27 11:00:36;;;;;;;2.50;2.13;;;15.60;99.90;;;;;;6323269;28;20480;-68
2022/09/27 11:03:48;;;;;;;2.20;2.00;;;15.60;99.90;;;;;;6322863;28;20491;-68
2022/09/27 11:06:53;;;;;;;2.03;1.83;;;15.70;99.90;;;;;;6322984;28;20472;-67
2022/09/27 11:10:01;;;;;;;2.10;1.90;;;15.70;99.90;;;;;;6323443;28;20534;-68
2022/09/27 11:13:13;;;;;;;1.50;1.40;;;15.80;99.90;;;;;;6323309;28;20464;-67
2022/09/27 11:16:25;;;;;;;3.13;2.00;;;15.80;99.90;;;;;;6318808;28;20448;-68
2022/09/27 11:19:42;;;;;;;4.00;3.70;;;15.90;99.90;;;;;;6320569;28;20461;-68
2022/09/27 11:23:23;;;;;;;2.53;2.33;;;16.00;99.90;;;;;;6316939;28;20477;-68
2022/09/27 11:26:37;;;;;;;3.53;2.40;;;16.00;99.90;;;;;;6320578;28;20468;-68
2022/09/27 11:29:53;;;;;;;2.23;2.03;;;16.00;99.90;;;;;;6319334;28;20476;-67
2022/09/27 11:33:27;;;;;;;2.30;2.10;;;16.00;99.90;;;;;;6308193;28;20474;-68
2022/09/27 11:36:43;;;;;;;2.33;2.13;;;16.00;99.90;;;;;;6263371;28;20474;-68
2022/09/27 11:40:02;;;;;;;2.33;2.13;;;16.00;99.90;;;;;;6300563;28;20469;-68
2022/09/27 11:43:29;;;;;;;1.87;1.77;;;16.10;99.90;;;;;;6302447;28;20536;-68
2022/09/27 11:46:34;;;;;;;2.17;1.90;;;16.10;99.90;;;;;;6306308;28;20468;-68
2022/09/27 11:50:03;;;;;;;2.20;2.00;;;16.10;99.90;;;;;;6314307;28;20473;-67
2022/09/27 11:53:18;;;;;;;1.77;1.67;;;16.10;99.90;;;;;;6318404;28;20499;-68
2022/09/27 11:56:34;;;;;;;1.73;1.53;;;16.20;99.90;;;;;;6304486;28;20477;-66
2022/09/27 11:59:55;;;;;;;1.83;1.63;;;16.20;99.90;;;;;;6302804;28;20481;-67
2022/09/27 12:03:20;;;;;;;2.27;2.07;;;16.20;99.90;;;;;;6317395;28;20465;-66
2022/09/27 12:06:33;;;;;;;2.90;1.43;;;16.20;99.90;;;;;;6328393;28;20468;-66
2022/09/27 12:09:42;;;;;;;3.60;1.90;;;16.30;99.90;;;;;;6328386;28;20475;-66
2022/09/27 12:12:52;;;;;;;1.73;1.63;;;16.30;99.90;;;;;;6327997;28;20472;-67
2022/09/27 12:15:57;;;;;;;2.53;1.93;;;16.30;99.90;;;;;;6327609;28;20477;-69
2022/09/27 12:19:02;;;;;;;2.07;1.83;;;16.40;99.90;;;;;;6322020;28;20460;-69
2022/09/27 12:22:11;;;;;;;3.03;1.73;;;16.40;99.90;;;;;;6327674;28;20473;-67
2022/09/27 12:25:18;;;;;;;5.60;2.40;;;16.30;99.90;;;;;;6327262;28;20940;-67
2022/09/27 12:28:39;;;;;;;3.47;3.10;;;16.30;99.90;;;;;;6327189;28;20425;-67
2022/09/27 12:31:47;;;;;;;2.40;2.20;;;16.30;99.90;;;;;;6327322;28;20472;-65
2022/09/27 12:34:56;;;;;;;3.87;2.50;;;16.20;99.90;;;;;;6327673;28;20483;-65
2022/09/27 12:38:03;;;;;;;3.23;2.93;;;16.10;99.90;;;;;;6306735;28;20960;-65
2022/09/27 12:41:10;;;;;;;5.93;3.30;;;16.00;99.90;;;;;;6302514;28;20488;-65
2022/09/27 12:44:15;;;;;;;4.00;3.33;;;15.90;99.90;;;;;;6302212;28;20495;-65
2022/09/27 12:47:43;;;;;;;4.37;2.83;;;15.90;99.90;;;;;;6302048;28;20473;-65
2022/09/27 12:50:50;;;;;;;3.40;3.10;;;16.00;99.90;;;;;;6295809;28;20473;-65
2022/09/27 12:54:09;;;;;;;3.50;3.20;;;15.90;99.90;;;;;;6296608;28;20452;-65
2022/09/27 12:57:24;;;;;;;3.97;3.60;;;16.00;99.90;;;;;;6326981;28;20487;-66
2022/09/27 13:00:37;;;;;;;5.60;3.53;;;15.90;99.90;;;;;;6327404;28;20469;-66
2022/09/27 13:04:06;;;;;;;4.20;3.80;;;15.80;99.90;;;;;;6327007;28;20567;-65
2022/09/27 13:07:24;;;;;;;4.80;4.40;;;15.50;99.90;;;;;;6327044;28;20441;-64
2022/09/27 13:10:50;;;;;;;8.53;4.63;;;15.50;99.90;;;;;;6326055;28;20807;-64
2022/09/27 13:13:56;;;;;;;4.73;4.13;;;15.60;99.90;;;;;;6327026;28;20479;-65
2022/09/27 13:17:01;;;;;;;4.17;3.87;;;15.60;99.90;;;;;;6326288;28;20487;-65
2022/09/27 13:20:37;;;;;;;4.23;3.83;;;15.70;99.90;;;;;;6306495;28;20477;-65
2022/09/27 13:24:01;;;;;;;4.77;4.37;;;15.80;99.90;;;;;;6301253;28;20474;-65
2022/09/27 13:27:35;;;;;;;4.07;3.73;;;15.90;99.90;;;;;;6302516;28;20480;-65
2022/09/27 13:30:48;;;;;;;4.00;3.70;;;15.90;99.90;;;;;;6302533;28;20475;-66
2022/09/27 13:33:53;;;;;;;3.40;3.10;;;15.90;99.90;;;;;;6316524;28;20492;-66
2022/09/27 13:36:56;;;;;;;3.70;3.40;;;15.90;99.90;;;;;;6317007;28;20531;-66
2022/09/27 13:40:26;;;;;;;3.07;2.87;;;16.10;99.90;;;;;;6300950;28;20802;-66
2022/09/27 13:43:42;;;;;;;4.97;3.67;;;16.10;99.90;;;;;;6297744;28;20454;-67
2022/09/27 13:46:50;;;;;;;4.30;3.90;;;16.10;99.90;;;;;;6301104;28;20469;-66
2022/09/27 13:50:01;;;;;;;6.53;4.83;;;16.30;99.90;;;;;;6300677;28;20470;-66
2022/09/27 13:53:09;;;;;;;4.80;4.40;;;16.30;99.90;;;;;;6302863;28;21033;-67
2022/09/27 13:56:55;;;;;;;3.87;3.40;;;16.50;99.90;;;;;;6325644;28;20960;-65
2022/09/27 14:00:04;;;;;;;4.20;3.80;;;16.40;99.90;;;;;;6325614;28;21024;-67
2022/09/27 14:03:16;;;;;;;4.30;3.90;;;16.50;99.90;;;;;;6324553;28;20479;-67
2022/09/27 14:06:26;;;;;;;4.27;3.87;;;16.50;99.90;;;;;;6321168;28;20473;-66
2022/09/27 14:09:32;;;;;;;5.40;4.87;;;16.60;99.90;;;;;;6324882;28;20526;-67
2022/09/27 14:12:38;;;;;;;7.10;4.40;;;16.60;99.90;;;;;;6325236;28;20959;-66
2022/09/27 14:15:43;;;;;;;5.10;4.50;;;16.70;99.90;;;;;;6325361;28;20464;-66
2022/09/27 14:18:52;;;;;;;4.50;4.13;;;16.80;99.90;;;;;;6325167;28;20479;-66
2022/09/27 14:21:57;;;;;;;6.53;5.30;;;16.80;99.90;;;;;;6325269;28;20972;-66
2022/09/27 14:25:02;;;;;;;4.83;4.43;;;16.80;99.90;;;;;;6325308;28;20484;-66
2022/09/27 14:28:19;;;;;;;5.27;4.40;;;16.60;99.90;;;;;;6324557;28;20504;-65
2022/09/27 14:31:24;;;;;;;4.23;3.93;;;16.60;99.90;;;;;;6305067;28;20845;-66
2022/09/27 14:34:27;;;;;;;4.20;3.73;;;16.40;99.90;;;;;;6318061;28;20464;-67
2022/09/27 14:37:32;;;;;;;3.00;2.80;;;16.30;99.90;;;;;;6323870;28;20488;-67
2022/09/27 14:40:42;;;;;;;3.43;3.13;;;16.00;99.90;;;;;;6324467;28;20825;-66
2022/09/27 14:43:49;;;;;;;3.60;3.30;;;15.90;99.90;;;;;;6324831;28;20890;-67
2022/09/27 14:47:08;;;;;;;3.70;3.40;;;15.70;99.90;;;;;;6323939;28;20803;-67
2022/09/27 14:50:19;;;;;;;3.50;2.93;;;15.60;99.90;;;;;;6324786;28;20526;-68
2022/09/27 14:53:25;;;;;;;2.90;2.70;;;15.50;99.90;;;;;;6324770;28;20468;-68
2022/09/27 14:56:31;;;;;;;3.13;2.50;;;15.50;99.90;;;;;;6320704;28;20927;-65
2022/09/27 14:59:36;;;;;;;3.63;3.07;;;15.50;99.90;;;;;;6328351;28;20475;-65
2022/09/27 15:02:41;;;;;;;2.47;2.27;;;15.30;99.90;;;;;;6329311;28;20473;-65
2022/09/27 15:05:44;;;;;;;3.50;2.60;;;15.30;99.90;;;;;;6333362;28;20476;-65
2022/09/27 15:08:49;;;;;;;7.10;2.50;;;15.20;99.90;;;;;;6329542;28;20480;-64
2022/09/27 15:11:57;;;;;;;2.70;2.50;;;15.00;99.90;;;;;;6326714;28;20488;-64
2022/09/27 15:15:00;;;;;;;4.40;2.70;;;15.00;99.90;;;;;;6331440;28;20968;-65
2022/09/27 15:18:19;;;;;;;2.90;2.70;;;15.10;99.90;;;;;;6331715;28;20464;-65
2022/09/27 15:21:29;;;;;;;3.87;3.23;;;15.20;99.90;;;;;;6328095;28;20587;-66
2022/09/27 15:24:44;;;;;;;4.87;3.60;;;15.20;99.90;;;;;;6329902;28;20968;-65
2022/09/27 15:27:52;;;;;;;5.00;3.53;;;15.20;99.90;;;;;;6330713;28;20468;-66
2022/09/27 15:30:57;;;;;;;3.20;2.90;;;15.30;99.90;;;;;;6329247;28;21026;-65
2022/09/27 15:34:00;;;;;;;3.60;3.30;;;15.30;99.90;;;;;;6308571;28;20488;-65
2022/09/27 15:37:05;;;;;;;3.90;3.20;;;15.30;99.90;;;;;;6303812;28;20492;-64
2022/09/27 15:40:47;;;;;;;3.83;2.93;;;15.40;99.90;;;;;;6300895;28;20551;-65
2022/09/27 15:43:52;;;;;;;4.10;3.80;;;15.40;99.90;;;;;;6292101;28;20985;-65
2022/09/27 15:46:55;;;;;;;5.43;3.70;;;15.30;99.90;;;;;;6301121;28;20550;-65
2022/09/27 15:49:59;;;;;;;3.30;3.00;;;15.30;99.90;;;;;;6315255;28;20526;-65
2022/09/27 15:53:05;;;;;;;3.40;3.10;;;15.40;99.90;;;;;;6318700;28;20941;-65
2022/09/27 15:56:14;;;;;;;5.33;4.33;;;15.40;99.90;;;;;;6329709;28;20464;-64
2022/09/27 15:59:22;;;;;;;3.97;3.67;;;15.40;99.90;;;;;;6323868;28;20484;-65
2022/09/27 16:02:25;;;;;;;4.53;4.10;;;15.40;99.90;;;;;;6318834;28;20776;-66
2022/09/27 16:05:31;;;;;;;4.03;3.50;;;15.40;99.90;;;;;;6303223;28;20477;-66
2022/09/27 16:08:35;;;;;;;8.33;7.10;;;15.40;99.90;;;;;;6303245;28;20469;-65
2022/09/27 16:11:39;;;;;;;7.37;6.77;;;15.40;99.90;;;;;;6303147;28;20477;-66
2022/09/27 16:14:42;;;;;;;5.97;5.47;;;15.40;99.90;;;;;;6302738;28;20465;-65
2022/09/27 16:17:45;;;;;;;3.93;3.60;;;15.40;99.90;;;;;;6303846;28;20476;-65